Terminal Aerodrome Forecast
Issued by NWS Nashville, TN

Home | Current Version | Previous Version | Text Only | Print | Product List | Glossary On
Versions: 1 2 3 4 5 6 7 8 9 10 11 12 13 14 15 16 17 18 19 20 21
000
FTUS44 KOHX 161900 AAA
TAFBNA
TAF AMD
KBNA 161904Z 1619/1718 36008KT P6SM OVC017
     FM162000 36008KT P6SM OVC025
     FM170300 36003KT P6SM SCT250
     FM171000 36002KT 3SM BR SCT005
     FM171400 36004KT P6SM SCT250=

USA.gov is the U.S. government's official web portal to all federal, state and local government web resources and services.